Time;durP1;ratioP1;P1;durP2;ratioP2;P2;SDS_P1;SDS_P2;PMS_P1;PMS_P2;Temp;Humidity;BMP_temperature;BMP_pressure;BME280_temperature;BME280_humidity;BME280_pressure;Samples;Min_cycle;Max_cycle;Signal;HPM_P1;HPM_P2
2023/12/08 00:00:57;;;;;;;13.90;9.35;;;;;;;2.14;100.00;100695.56;5032528;28;20037;-71
2023/12/08 00:03:22;;;;;;;13.15;9.05;;;;;;;2.21;100.00;100686.03;5023537;28;20041;-71
2023/12/08 00:05:47;;;;;;;12.65;9.35;;;;;;;2.22;100.00;100682.56;5029742;28;20029;-71
2023/12/08 00:08:13;;;;;;;12.60;9.45;;;;;;;2.25;100.00;100664.44;5029597;28;20033;-71
2023/12/08 00:10:38;;;;;;;11.48;9.43;;;;;;;2.19;100.00;100652.44;5034170;28;20029;-71
2023/12/08 00:13:03;;;;;;;13.95;9.20;;;;;;;2.26;100.00;100641.19;5029138;28;20033;-71
2023/12/08 00:15:29;;;;;;;11.50;9.43;;;;;;;2.17;100.00;100649.03;5018023;28;20067;-71
2023/12/08 00:17:55;;;;;;;14.88;9.77;;;;;;;2.09;100.00;100664.59;5033690;28;20056;-71
2023/12/08 00:20:20;;;;;;;15.18;9.90;;;;;;;2.02;100.00;100654.31;5031911;28;20033;-71
2023/12/08 00:22:45;;;;;;;11.48;9.13;;;;;;;2.03;100.00;100651.72;5019647;28;20037;-71
2023/12/08 00:25:11;;;;;;;15.80;9.82;;;;;;;2.01;100.00;100648.28;5044407;28;20068;-71
2023/12/08 00:27:37;;;;;;;14.15;10.10;;;;;;;2.01;100.00;100650.88;5054203;28;20060;-71
2023/12/08 00:30:03;;;;;;;17.15;10.57;;;;;;;2.02;100.00;100650.03;5053826;28;20040;-71
2023/12/08 00:32:28;;;;;;;15.43;10.18;;;;;;;2.02;100.00;100656.91;5053982;28;20071;-71
2023/12/08 00:34:54;;;;;;;13.35;9.98;;;;;;;2.02;100.00;100651.72;5054477;28;20024;-71
2023/12/08 00:37:20;;;;;;;14.77;10.75;;;;;;;1.96;100.00;100651.78;5054121;28;20435;-71
2023/12/08 00:39:46;;;;;;;17.13;11.80;;;;;;;1.99;100.00;100652.63;5054140;28;20603;-71
2023/12/08 00:42:11;;;;;;;17.42;11.52;;;;;;;1.95;100.00;100658.69;5054194;28;20032;-71
2023/12/08 00:44:37;;;;;;;17.52;10.65;;;;;;;1.91;100.00;100650.13;5053690;28;20056;-71
2023/12/08 00:47:04;;;;;;;21.83;11.10;;;;;;;1.86;100.00;100651.88;5054249;28;20532;-71
2023/12/08 00:49:29;;;;;;;15.35;10.68;;;;;;;1.92;100.00;100654.38;5053044;28;20060;-71
2023/12/08 00:51:55;;;;;;;20.20;11.45;;;;;;;1.94;100.00;100662.13;5054085;28;20252;-71
2023/12/08 00:54:21;;;;;;;17.70;11.15;;;;;;;1.89;100.00;100666.47;5053968;28;20106;-71
2023/12/08 00:56:47;;;;;;;16.23;10.35;;;;;;;1.91;100.00;100664.72;5052991;28;20044;-71
2023/12/08 00:59:12;;;;;;;15.18;10.73;;;;;;;1.92;100.00;100663.88;5053170;28;20040;-71
2023/12/08 01:01:38;;;;;;;17.05;11.63;;;;;;;1.93;100.00;100650.09;5053544;28;20323;-71
2023/12/08 01:04:03;;;;;;;18.25;11.50;;;;;;;1.94;100.00;100654.38;5053937;28;20049;-71
2023/12/08 01:06:28;;;;;;;23.02;11.65;;;;;;;1.98;100.00;100656.06;5053647;28;20040;-71
2023/12/08 01:08:54;;;;;;;21.20;12.20;;;;;;;1.99;100.00;100657.78;5053763;28;20228;-71
2023/12/08 01:11:19;;;;;;;20.23;12.43;;;;;;;1.90;100.00;100656.13;5053793;28;20309;-71
2023/12/08 01:13:44;;;;;;;20.42;11.98;;;;;;;1.95;100.00;100650.06;5053736;28;20040;-71
2023/12/08 01:16:10;;;;;;;16.63;11.88;;;;;;;1.95;100.00;100638.03;5053674;28;20033;-71
2023/12/08 01:18:36;;;;;;;18.55;11.75;;;;;;;2.01;100.00;100637.97;5053613;28;20287;-71
2023/12/08 01:21:01;;;;;;;20.95;11.55;;;;;;;2.08;100.00;100641.38;5053961;28;20043;-71
2023/12/08 01:23:26;;;;;;;16.73;12.02;;;;;;;2.08;100.00;100636.19;5050779;28;20077;-71
2023/12/08 01:25:52;;;;;;;20.95;12.73;;;;;;;2.02;100.00;100636.22;5033990;28;20242;-71
2023/12/08 01:28:17;;;;;;;18.42;11.98;;;;;;;2.05;100.00;100637.06;5033754;28;20029;-71
2023/12/08 01:30:43;;;;;;;24.55;13.63;;;;;;;2.01;100.00;100632.78;5033292;28;20351;-71
2023/12/08 01:33:08;;;;;;;23.52;13.15;;;;;;;1.99;100.00;100637.13;5034021;28;20097;-73
2023/12/08 01:35:34;;;;;;;19.52;12.95;;;;;;;1.95;100.00;100630.28;5033396;28;20379;-74
2023/12/08 01:37:59;;;;;;;17.48;12.93;;;;;;;1.94;100.00;100622.53;5034524;28;20112;-74
2023/12/08 01:40:25;;;;;;;21.90;13.05;;;;;;;1.97;100.00;100619.94;5034126;28;20328;-74
2023/12/08 01:42:51;;;;;;;18.98;12.50;;;;;;;1.92;100.00;100623.41;5033693;28;20044;-74
2023/12/08 01:45:16;;;;;;;22.17;13.93;;;;;;;1.97;100.00;100623.38;5033802;28;20413;-74
2023/12/08 01:47:42;;;;;;;20.65;13.57;;;;;;;2.03;100.00;100620.72;5033328;28;20317;-74
2023/12/08 01:50:09;;;;;;;21.25;13.57;;;;;;;2.06;100.00;100610.38;5033921;28;20083;-74
2023/12/08 01:52:36;;;;;;;20.42;13.00;;;;;;;2.03;100.00;100594.88;5033207;28;20033;-74
2023/12/08 01:55:02;;;;;;;19.80;13.38;;;;;;;1.99;100.00;100584.63;5033836;28;20034;-74
2023/12/08 01:57:28;;;;;;;20.42;12.88;;;;;;;2.02;100.00;100597.47;5032439;28;20096;-74
2023/12/08 01:59:55;;;;;;;21.50;13.85;;;;;;;1.95;100.00;100594.13;5033550;28;20360;-74
2023/12/08 02:02:21;;;;;;;25.42;14.40;;;;;;;1.96;100.00;100590.66;5033127;28;20065;-74
2023/12/08 02:04:49;;;;;;;20.40;13.40;;;;;;;2.00;100.00;100589.78;5033427;28;20091;-71
2023/12/08 02:07:15;;;;;;;22.13;14.43;;;;;;;2.02;100.00;100572.53;5033044;28;20030;-71
2023/12/08 02:09:41;;;;;;;20.98;13.15;;;;;;;1.94;100.00;100557.97;5035379;28;20044;-71
2023/12/08 02:12:07;;;;;;;21.10;14.10;;;;;;;1.92;100.00;100548.50;5036993;28;20037;-71
2023/12/08 02:14:33;;;;;;;23.63;14.85;;;;;;;1.87;100.00;100541.66;5018450;28;20037;-71
2023/12/08 02:17:04;;;;;;;22.60;13.88;;;;;;;1.86;100.00;100537.41;5036738;28;20287;-71
2023/12/08 02:19:31;;;;;;;22.85;13.75;;;;;;;1.91;100.00;100531.31;5037100;28;20201;-71
2023/12/08 02:21:57;;;;;;;21.80;14.13;;;;;;;1.91;100.00;100527.84;5036903;28;20340;-71
2023/12/08 02:24:22;;;;;;;22.50;14.00;;;;;;;1.94;100.00;100532.16;5036624;28;20049;-71
2023/12/08 02:26:48;;;;;;;21.27;14.35;;;;;;;1.94;100.00;100538.16;5036192;28;20037;-71
2023/12/08 02:29:14;;;;;;;21.10;12.93;;;;;;;2.00;100.00;100545.88;5035900;28;20122;-71
2023/12/08 02:32:05;;;;;;;22.33;14.85;;;;;;;1.95;100.00;100550.22;5036949;28;20328;-71
2023/12/08 02:34:31;;;;;;;22.10;14.93;;;;;;;1.91;100.00;100575.22;5035787;28;20100;-71
2023/12/08 02:36:59;;;;;;;26.58;15.15;;;;;;;1.92;100.00;100588.97;5036653;28;20330;-71
2023/12/08 02:39:26;;;;;;;22.42;14.85;;;;;;;1.92;100.00;100592.41;5036232;28;20043;-71
2023/12/08 02:41:51;;;;;;;23.17;14.18;;;;;;;1.94;100.00;100592.41;5036854;28;20156;-71
2023/12/08 02:44:17;;;;;;;22.67;14.95;;;;;;;1.95;100.00;100594.13;5036015;28;20064;-71
2023/12/08 02:46:42;;;;;;;24.80;14.18;;;;;;;1.92;100.00;100591.56;5036137;28;20140;-71
2023/12/08 02:49:08;;;;;;;26.75;15.43;;;;;;;1.94;100.00;100586.38;5036745;28;20440;-71
2023/12/08 02:51:33;;;;;;;21.90;14.05;;;;;;;1.97;100.00;100587.22;5036435;28;20399;-71
2023/12/08 02:53:58;;;;;;;25.58;15.45;;;;;;;2.01;100.00;100582.88;5036457;28;20288;-71
2023/12/08 02:56:24;;;;;;;29.65;15.95;;;;;;;2.00;100.00;100575.97;5036203;28;20069;-71
2023/12/08 02:58:49;;;;;;;24.73;15.02;;;;;;;1.97;100.00;100579.47;5035983;28;20052;-71
2023/12/08 03:01:14;;;;;;;21.98;14.55;;;;;;;2.01;100.00;100575.97;5035800;28;20451;-71
2023/12/08 03:03:40;;;;;;;24.30;14.82;;;;;;;2.03;100.00;100569.06;5035842;28;20380;-71
2023/12/08 03:06:06;;;;;;;26.27;15.43;;;;;;;2.04;100.00;100573.38;5036266;28;20084;-71
2023/12/08 03:08:31;;;;;;;24.70;14.85;;;;;;;2.02;100.00;100564.78;5035310;28;20021;-71
2023/12/08 03:10:56;;;;;;;27.55;15.52;;;;;;;2.02;100.00;100556.16;5035688;28;20214;-71
2023/12/08 03:13:22;;;;;;;25.92;15.23;;;;;;;2.03;100.00;100547.53;5036182;28;20029;-71
2023/12/08 03:15:48;;;;;;;23.95;14.18;;;;;;;2.03;100.00;100545.81;5034832;28;20029;-71
2023/12/08 03:18:13;;;;;;;19.75;14.00;;;;;;;2.09;100.00;100544.88;5035618;28;20037;-71
2023/12/08 03:20:39;;;;;;;23.13;15.05;;;;;;;2.08;100.00;100544.03;5034952;28;20037;-72
2023/12/08 03:23:04;;;;;;;22.98;15.05;;;;;;;2.06;100.00;100538.03;5035725;28;20041;-74
2023/12/08 03:25:29;;;;;;;23.20;14.63;;;;;;;2.13;100.00;100506.97;5034933;28;20607;-74
2023/12/08 03:27:55;;;;;;;21.48;14.30;;;;;;;2.16;100.00;100502.63;5035453;28;20364;-74
2023/12/08 03:30:20;;;;;;;26.77;15.07;;;;;;;2.10;100.00;100484.63;5035075;28;20041;-74
2023/12/08 03:32:45;;;;;;;24.38;14.73;;;;;;;2.09;100.00;100480.31;5034968;28;20037;-74
2023/12/08 03:35:10;;;;;;;24.70;14.27;;;;;;;2.13;100.00;100497.50;5035218;28;20038;-74
2023/12/08 03:37:36;;;;;;;23.33;14.40;;;;;;;2.13;100.00;100501.78;5034399;28;20037;-74
2023/12/08 03:40:02;;;;;;;22.27;14.38;;;;;;;2.11;100.00;100501.81;5035138;28;20033;-74
2023/12/08 03:42:27;;;;;;;23.92;13.88;;;;;;;2.13;100.00;100504.38;5034855;28;20217;-74
2023/12/08 03:44:52;;;;;;;20.80;12.70;;;;;;;2.16;100.00;100512.09;5035040;28;20083;-74
2023/12/08 03:47:18;;;;;;;19.23;13.13;;;;;;;2.17;100.00;100506.91;5034664;28;20098;-74
2023/12/08 03:49:44;;;;;;;25.50;13.65;;;;;;;2.18;100.00;100508.63;5034594;28;20082;-74
2023/12/08 03:52:09;;;;;;;23.48;14.13;;;;;;;2.19;100.00;100506.91;5035293;28;20310;-74
2023/12/08 03:54:34;;;;;;;21.90;13.88;;;;;;;2.17;100.00;100506.91;5034564;28;20280;-74
2023/12/08 03:57:00;;;;;;;21.25;14.13;;;;;;;2.17;100.00;100504.34;5035344;28;20076;-74
2023/12/08 03:59:25;;;;;;;20.83;13.80;;;;;;;2.20;100.00;100514.66;5034593;28;20244;-74
2023/12/08 04:01:52;;;;;;;21.55;13.60;;;;;;;2.20;100.00;100511.19;5034768;28;20401;-74
2023/12/08 04:04:17;;;;;;;19.63;12.65;;;;;;;2.19;100.00;100505.16;5034510;28;20047;-74
2023/12/08 04:06:43;;;;;;;19.75;13.02;;;;;;;2.19;100.00;100512.94;5034166;28;20053;-74
2023/12/08 04:09:08;;;;;;;21.83;13.23;;;;;;;2.22;100.00;100512.03;5035130;28;20048;-74
2023/12/08 04:11:33;;;;;;;22.13;13.35;;;;;;;2.27;100.00;100510.25;5034435;28;20037;-74
2023/12/08 04:13:59;;;;;;;20.90;13.02;;;;;;;2.27;100.00;100502.50;5034927;28;20113;-74
2023/12/08 04:16:24;;;;;;;19.58;13.40;;;;;;;2.26;100.00;100503.38;5034162;28;20067;-74
2023/12/08 04:18:49;;;;;;;22.88;12.95;;;;;;;2.25;100.00;100493.91;5034164;28;20258;-74
2023/12/08 04:21:18;;;;;;;22.90;12.80;;;;;;;2.23;100.00;100493.91;5034274;28;20064;-74
2023/12/08 04:23:44;;;;;;;21.73;13.82;;;;;;;2.23;100.00;100491.34;5034519;28;20256;-74
2023/12/08 04:26:09;;;;;;;20.75;12.30;;;;;;;2.24;100.00;100497.38;5034471;28;20314;-74
2023/12/08 04:28:34;;;;;;;20.98;12.95;;;;;;;2.23;100.00;100500.81;5033962;28;20295;-74
2023/12/08 04:31:00;;;;;;;22.10;13.80;;;;;;;2.21;100.00;100505.16;5034042;28;20140;-74
2023/12/08 04:33:25;;;;;;;21.15;13.27;;;;;;;2.23;100.00;100506.84;5034506;28;20044;-74
2023/12/08 04:35:50;;;;;;;17.20;11.95;;;;;;;2.29;100.00;100506.78;5034277;28;20316;-74
2023/12/08 04:38:16;;;;;;;23.20;13.48;;;;;;;2.28;100.00;100510.22;5034231;28;20045;-74
2023/12/08 04:40:41;;;;;;;20.23;13.35;;;;;;;2.26;100.00;100504.22;5033963;28;20293;-74
2023/12/08 04:43:06;;;;;;;21.70;13.70;;;;;;;2.28;100.00;100489.56;5034575;28;20072;-74
2023/12/08 04:45:32;;;;;;;20.80;13.07;;;;;;;2.29;100.00;100486.13;5033758;28;20412;-74
2023/12/08 04:47:58;;;;;;;21.08;12.57;;;;;;;2.30;100.00;100487.81;5033735;28;20037;-74
2023/12/08 04:50:23;;;;;;;19.33;12.07;;;;;;;2.33;100.00;100483.47;5034524;28;20037;-74
2023/12/08 04:52:48;;;;;;;18.25;12.68;;;;;;;2.33;100.00;100488.63;5033554;28;20040;-74
2023/12/08 04:55:14;;;;;;;15.23;11.10;;;;;;;2.35;100.00;100489.47;5034197;28;20037;-74
2023/12/08 04:57:39;;;;;;;21.88;13.60;;;;;;;2.35;100.00;100486.88;5033886;28;20340;-74
2023/12/08 05:00:05;;;;;;;18.95;12.90;;;;;;;2.34;100.00;100496.38;5033864;28;20061;-74
2023/12/08 05:02:31;;;;;;;21.45;12.32;;;;;;;2.34;100.00;100488.63;5033239;28;20060;-74
2023/12/08 05:04:56;;;;;;;18.17;12.82;;;;;;;2.36;100.00;100480.84;5034315;28;20349;-73
2023/12/08 05:07:21;;;;;;;18.65;12.45;;;;;;;2.34;100.00;100480.03;5033856;28;20037;-74
2023/12/08 05:09:47;;;;;;;18.60;12.55;;;;;;;2.36;100.00;100489.47;5033640;28;20047;-74
2023/12/08 05:12:12;;;;;;;19.08;13.13;;;;;;;2.37;100.00;100498.09;5033993;28;20056;-74
2023/12/08 05:14:37;;;;;;;17.40;11.65;;;;;;;2.37;100.00;100496.34;5033455;28;20052;-74
2023/12/08 05:17:03;;;;;;;18.73;11.93;;;;;;;2.35;100.00;100498.09;5034075;28;20375;-74
2023/12/08 05:19:28;;;;;;;19.77;12.65;;;;;;;2.36;100.00;100497.22;5032799;28;20041;-74
2023/12/08 05:21:55;;;;;;;20.80;12.48;;;;;;;2.36;100.00;100492.03;5033821;28;20037;-74
2023/12/08 05:24:20;;;;;;;17.95;12.05;;;;;;;2.38;100.00;100492.88;5032946;28;20088;-74
2023/12/08 05:26:46;;;;;;;18.77;12.30;;;;;;;2.42;100.00;100491.09;5034112;28;20036;-74
2023/12/08 05:29:11;;;;;;;15.75;11.30;;;;;;;2.44;100.00;100484.22;5033102;28;20211;-74
2023/12/08 05:31:36;;;;;;;17.63;12.25;;;;;;;2.44;100.00;100489.38;5033563;28;20049;-74
2023/12/08 05:34:02;;;;;;;17.65;12.65;;;;;;;2.44;100.00;100489.38;5033682;28;20037;-74
2023/12/08 05:36:27;;;;;;;15.23;11.50;;;;;;;2.45;100.00;100484.16;5033123;28;20356;-74
2023/12/08 05:38:52;;;;;;;20.13;12.88;;;;;;;2.50;100.00;100484.97;5034078;28;20041;-74
2023/12/08 05:41:18;;;;;;;15.45;10.95;;;;;;;2.51;100.00;100491.00;5033634;28;20041;-74
2023/12/08 05:43:43;;;;;;;18.58;12.02;;;;;;;2.50;100.00;100499.63;5036430;28;20045;-74
2023/12/08 05:46:08;;;;;;;19.65;12.15;;;;;;;2.50;100.00;100491.88;5037670;28;20213;-74
2023/12/08 05:48:34;;;;;;;22.05;12.70;;;;;;;2.51;100.00;100485.84;5036959;28;20083;-74
2023/12/08 05:50:59;;;;;;;22.48;12.82;;;;;;;2.53;100.00;100480.63;5037502;28;20082;-74
2023/12/08 05:53:24;;;;;;;18.02;11.32;;;;;;;2.52;100.00;100489.28;5037047;28;20051;-74
2023/12/08 05:55:50;;;;;;;23.83;12.98;;;;;;;2.48;100.00;100488.47;5037037;28;20049;-74
2023/12/08 05:58:15;;;;;;;21.63;12.85;;;;;;;2.48;100.00;100498.81;5037305;28;20037;-74
2023/12/08 06:00:41;;;;;;;18.88;12.88;;;;;;;2.46;100.00;100496.22;5037000;28;20035;-74
2023/12/08 06:03:06;;;;;;;19.73;12.25;;;;;;;2.46;100.00;100500.56;5037357;28;20045;-74
2023/12/08 06:05:32;;;;;;;18.70;12.63;;;;;;;2.47;100.00;100513.47;5036824;28;20037;-74
2023/12/08 06:07:57;;;;;;;18.02;12.27;;;;;;;2.48;100.00;100515.16;5037249;28;20041;-74
2023/12/08 06:10:24;;;;;;;19.38;13.35;;;;;;;2.49;100.00;100516.88;5036740;28;20075;-74
2023/12/08 06:12:49;;;;;;;18.17;13.00;;;;;;;2.50;100.00;100509.97;5037194;28;20037;-74
2023/12/08 06:15:14;;;;;;;20.63;12.80;;;;;;;2.50;100.00;100513.41;5036581;28;20351;-74
2023/12/08 06:17:40;;;;;;;17.60;12.63;;;;;;;2.53;100.00;100511.66;5036396;28;20033;-74
2023/12/08 06:20:08;;;;;;;18.77;12.15;;;;;;;2.54;100.00;100505.63;5036480;28;20316;-74
2023/12/08 06:22:34;;;;;;;19.73;13.32;;;;;;;2.54;100.00;100506.47;5036192;28;20041;-74
2023/12/08 06:24:59;;;;;;;23.10;13.63;;;;;;;2.55;100.00;100508.19;5039955;28;20464;-74
2023/12/08 06:27:24;;;;;;;23.88;13.75;;;;;;;2.56;100.00;100516.78;5028137;28;20052;-71
2023/12/08 06:29:52;;;;;;;25.48;14.27;;;;;;;2.56;100.00;100522.81;5034935;28;20029;-71
2023/12/08 06:32:21;;;;;;;22.90;13.87;;;;;;;2.57;100.00;100515.94;5021729;28;20040;-71
2023/12/08 06:34:46;;;;;;;22.30;13.73;;;;;;;2.58;100.00;100513.31;5036230;28;20498;-71
2023/12/08 06:37:13;;;;;;;22.95;13.63;;;;;;;2.60;100.00;100515.88;5026805;28;20033;-71
2023/12/08 06:39:41;;;;;;;18.30;12.77;;;;;;;2.60;100.00;100516.75;5030310;28;20057;-71
2023/12/08 06:42:06;;;;;;;17.67;13.37;;;;;;;2.63;100.00;100521.00;5017308;28;20048;-71
2023/12/08 06:44:32;;;;;;;20.98;13.52;;;;;;;2.63;100.00;100513.25;5021104;28;20036;-71
2023/12/08 06:46:57;;;;;;;21.08;13.82;;;;;;;2.65;100.00;100514.94;5036459;28;20291;-74
2023/12/08 06:49:22;;;;;;;20.10;13.05;;;;;;;2.68;100.00;100519.22;5029069;28;20156;-74
2023/12/08 06:51:48;;;;;;;22.88;14.23;;;;;;;2.68;100.00;100519.22;5025683;28;20419;-72
2023/12/08 06:54:13;;;;;;;24.95;13.50;;;;;;;2.70;100.00;100522.63;5031147;28;20045;-72
2023/12/08 06:56:44;;;;;;;22.75;14.10;;;;;;;2.69;100.00;100510.56;5049414;28;20029;-72
2023/12/08 06:59:10;;;;;;;21.58;13.52;;;;;;;2.71;100.00;100510.56;5031081;28;20134;-72
2023/12/08 07:01:35;;;;;;;21.63;13.13;;;;;;;2.71;100.00;100503.69;5019672;28;20113;-72
2023/12/08 07:04:03;;;;;;;22.80;14.05;;;;;;;2.73;100.00;100514.84;5035699;28;20112;-72
2023/12/08 07:06:32;;;;;;;23.30;14.38;;;;;;;2.74;100.00;100513.97;5032850;28;20064;-72
2023/12/08 07:08:58;;;;;;;22.98;14.52;;;;;;;2.73;100.00;100514.84;5035190;28;20090;-72
2023/12/08 07:11:23;;;;;;;25.60;14.00;;;;;;;2.74;100.00;100521.72;5033230;28;20041;-72
2023/12/08 07:13:49;;;;;;;26.20;14.73;;;;;;;2.73;100.00;100525.19;5032878;28;20039;-72
2023/12/08 07:16:14;;;;;;;22.77;14.50;;;;;;;2.75;100.00;100536.38;5033873;28;20068;-72
2023/12/08 07:18:40;;;;;;;26.15;13.93;;;;;;;2.76;100.00;100532.91;5034004;28;20040;-72
2023/12/08 07:21:08;;;;;;;24.10;14.63;;;;;;;2.77;100.00;100524.28;5034033;28;20037;-72
2023/12/08 07:23:34;;;;;;;24.98;14.43;;;;;;;2.80;100.00;100525.94;5020609;28;20060;-72
2023/12/08 07:26:00;;;;;;;31.63;16.63;;;;;;;2.79;100.00;100525.09;5055484;28;20055;-72
2023/12/08 07:28:26;;;;;;;27.10;14.63;;;;;;;2.81;100.00;100525.94;5055783;28;20044;-72
2023/12/08 07:30:51;;;;;;;26.63;15.40;;;;;;;2.84;100.00;100525.06;5054642;28;20367;-72
2023/12/08 07:33:16;;;;;;;29.95;16.70;;;;;;;2.83;100.00;100515.56;5054944;28;20090;-72
2023/12/08 07:35:42;;;;;;;29.08;16.40;;;;;;;2.84;100.00;100523.31;5051101;28;20205;-72
2023/12/08 07:38:07;;;;;;;34.67;17.02;;;;;;;2.86;100.00;100531.91;5053591;28;20085;-72
2023/12/08 07:40:33;;;;;;;25.83;15.50;;;;;;;2.88;100.00;100539.66;5053410;28;20039;-72
2023/12/08 07:42:59;;;;;;;32.22;16.70;;;;;;;2.88;100.00;100532.72;5053702;28;20059;-72
2023/12/08 07:45:24;;;;;;;29.02;17.25;;;;;;;2.88;100.00;100532.72;5052106;28;20033;-72
2023/12/08 07:47:50;;;;;;;27.45;15.88;;;;;;;2.91;100.00;100543.91;5052944;28;20036;-72
2023/12/08 07:50:15;;;;;;;32.22;16.98;;;;;;;2.93;100.00;100555.97;5053605;28;20263;-72
2023/12/08 07:52:41;;;;;;;31.33;16.45;;;;;;;2.94;100.00;100560.25;5049280;28;20252;-72
2023/12/08 07:55:08;;;;;;;46.70;18.30;;;;;;;2.95;100.00;100564.56;5054659;28;20032;-72
2023/12/08 07:57:34;;;;;;;27.50;16.25;;;;;;;2.97;100.00;100554.19;5051997;28;20041;-72
2023/12/08 07:59:59;;;;;;;34.42;15.50;;;;;;;2.99;100.00;100562.78;5053765;28;20098;-72
2023/12/08 08:02:25;;;;;;;39.05;17.17;;;;;;;2.99;100.00;100560.19;5054150;28;20033;-72
2023/12/08 08:04:50;;;;;;;33.63;16.92;;;;;;;3.02;100.00;100567.88;5054671;28;20107;-72
2023/12/08 08:07:16;;;;;;;47.95;19.63;;;;;;;3.04;100.00;100566.16;5054227;28;20352;-72
2023/12/08 08:09:42;;;;;;;43.17;17.90;;;;;;;3.04;100.00;100579.94;5054011;28;20033;-72
2023/12/08 08:12:09;;;;;;;44.15;18.77;;;;;;;3.06;100.00;100574.75;5054845;28;20046;-72
2023/12/08 08:14:34;;;;;;;42.47;18.88;;;;;;;3.08;100.00;100573.00;5054425;28;20033;-72
2023/12/08 08:17:00;;;;;;;42.95;19.00;;;;;;;3.08;100.00;100575.59;5054074;28;20305;-72
2023/12/08 08:19:25;;;;;;;63.42;20.08;;;;;;;3.11;100.00;100575.56;5054574;28;20029;-72
2023/12/08 08:21:51;;;;;;;43.03;18.27;;;;;;;3.13;100.00;100576.38;5053931;28;20128;-72
2023/12/08 08:24:16;;;;;;;35.75;16.92;;;;;;;3.16;100.00;100575.47;5047611;28;20049;-72
2023/12/08 08:26:42;;;;;;;34.47;17.30;;;;;;;3.18;100.00;100577.16;5033477;28;20037;-72
2023/12/08 08:29:08;;;;;;;40.72;17.98;;;;;;;3.20;100.00;100579.72;5033923;28;20041;-72
2023/12/08 08:31:33;;;;;;;39.55;18.02;;;;;;;3.22;100.00;100575.38;5033431;28;20032;-72
2023/12/08 08:33:58;;;;;;;43.28;19.25;;;;;;;3.23;100.00;100587.44;5033487;28;20092;-72
2023/12/08 08:36:25;;;;;;;52.35;19.70;;;;;;;3.25;100.00;100581.34;5033676;28;20052;-72
2023/12/08 08:38:51;;;;;;;44.97;18.75;;;;;;;3.30;100.00;100588.22;5033175;28;20025;-72
2023/12/08 08:41:17;;;;;;;42.13;18.67;;;;;;;3.34;100.00;100584.72;5033702;28;20256;-72
2023/12/08 08:43:42;;;;;;;42.70;19.02;;;;;;;3.38;100.00;100591.53;5033156;28;20029;-72
2023/12/08 08:46:08;;;;;;;62.90;20.23;;;;;;;3.43;100.00;100597.50;5033415;28;20166;-72
2023/12/08 08:48:33;;;;;;;46.38;19.77;;;;;;;3.43;100.00;100598.34;5032796;28;20045;-72
2023/12/08 08:50:59;;;;;;;54.28;21.88;;;;;;;3.47;100.00;100601.75;5034104;28;20044;-72
2023/12/08 08:53:24;;;;;;;55.65;20.85;;;;;;;3.48;100.00;100600.03;5030036;28;20056;-72
2023/12/08 08:55:49;;;;;;;57.38;21.17;;;;;;;3.53;100.00;100605.97;5037172;28;20045;-72
2023/12/08 08:58:15;;;;;;;44.47;19.63;;;;;;;3.53;100.00;100603.38;5032791;28;20350;-72
2023/12/08 09:00:41;;;;;;;57.03;21.92;;;;;;;3.55;100.00;100605.09;5032359;28;20033;-72
2023/12/08 09:03:06;;;;;;;61.17;21.52;;;;;;;3.56;100.00;100611.13;5028919;28;20045;-72
2023/12/08 09:05:34;;;;;;;61.13;22.48;;;;;;;3.56;100.00;100596.44;5033148;28;20326;-72
2023/12/08 09:07:59;;;;;;;62.35;22.67;;;;;;;3.61;100.00;100609.31;5034008;28;20048;-72
2023/12/08 09:10:25;;;;;;;68.35;23.55;;;;;;;3.62;100.00;100609.31;5033432;28;20037;-72
2023/12/08 09:12:50;;;;;;;52.17;21.88;;;;;;;3.65;100.00;100601.47;5015351;28;20087;-72
2023/12/08 09:15:16;;;;;;;64.50;24.58;;;;;;;3.70;100.00;100605.75;5033224;28;20037;-72
2023/12/08 09:17:42;;;;;;;61.08;23.92;;;;;;;3.71;100.00;100610.03;5036455;28;20021;-72
2023/12/08 09:20:13;;;;;;;57.67;22.80;;;;;;;3.73;100.00;100616.91;5040014;28;20513;-72
2023/12/08 09:22:39;;;;;;;62.72;23.55;;;;;;;3.74;100.00;100613.41;5040110;28;20044;-72
2023/12/08 09:25:05;;;;;;;76.35;25.38;;;;;;;3.79;100.00;100610.75;5055763;28;20041;-72
2023/12/08 09:27:30;;;;;;;64.47;23.73;;;;;;;3.82;100.00;100613.28;5059412;28;20036;-72
2023/12/08 09:29:56;;;;;;;74.05;23.45;;;;;;;3.85;100.00;100613.25;5060329;28;20179;-72
2023/12/08 09:32:22;;;;;;;60.83;22.20;;;;;;;3.89;100.00;100616.63;5059732;28;20053;-72
2023/12/08 09:34:47;;;;;;;53.03;21.88;;;;;;;3.92;100.00;100614.84;5059402;28;20025;-72
2023/12/08 09:37:13;;;;;;;63.35;23.65;;;;;;;3.97;100.00;100627.75;5059889;28;20036;-72
2023/12/08 09:39:39;;;;;;;64.60;24.33;;;;;;;4.00;100.00;100628.56;5059776;28;20037;-72
2023/12/08 09:42:31;;;;;;;70.35;23.05;;;;;;;4.04;100.00;100634.53;5060191;28;20063;-72
2023/12/08 09:44:57;;;;;;;77.32;26.27;;;;;;;4.10;100.00;100641.34;5051241;28;20048;-72
2023/12/08 09:47:25;;;;;;;74.45;24.33;;;;;;;4.13;100.00;100639.56;5059488;28;20048;-72
2023/12/08 09:49:52;;;;;;;65.05;24.35;;;;;;;4.15;100.00;100640.38;5059497;28;20102;-72
2023/12/08 09:52:17;;;;;;;61.20;23.13;;;;;;;4.18;100.00;100637.75;5059359;28;20046;-72
2023/12/08 09:54:44;;;;;;;66.63;23.95;;;;;;;4.23;100.00;100638.50;5059388;28;20068;-72
2023/12/08 09:57:10;;;;;;;72.55;25.08;;;;;;;4.27;100.00;100646.22;5060441;28;20051;-72
2023/12/08 09:59:38;;;;;;;96.55;26.83;;;;;;;4.30;100.00;100644.44;5059302;28;20060;-72
2023/12/08 10:02:04;;;;;;;82.13;26.33;;;;;;;4.32;100.00;100639.22;5058511;28;20253;-73
2023/12/08 10:04:29;;;;;;;78.28;24.60;;;;;;;4.33;100.00;100647.00;5058127;28;20028;-73
2023/12/08 10:07:00;;;;;;;69.03;23.63;;;;;;;4.37;100.00;100645.19;5058939;28;20037;-72
2023/12/08 10:09:29;;;;;;;58.75;22.88;;;;;;;4.40;100.00;100643.41;5059997;28;20076;-72
2023/12/08 10:11:54;;;;;;;53.70;20.45;;;;;;;4.42;100.00;100649.41;5059578;28;20100;-72
2023/12/08 10:14:21;;;;;;;91.72;27.33;;;;;;;4.46;100.00;100652.81;5057946;28;20323;-72
2023/12/08 10:16:47;;;;;;;55.15;20.77;;;;;;;4.49;100.00;100655.31;5058525;28;20354;-72
2023/12/08 10:19:13;;;;;;;56.05;22.48;;;;;;;4.52;100.00;100654.44;5059184;28;20321;-72
2023/12/08 10:21:39;;;;;;;88.70;27.63;;;;;;;4.56;100.00;100648.28;5058924;28;20032;-72
2023/12/08 10:24:04;;;;;;;80.85;25.83;;;;;;;4.58;100.00;100647.41;5048792;28;20049;-72
2023/12/08 10:26:33;;;;;;;85.13;26.30;;;;;;;4.62;100.00;100650.78;5030531;28;20033;-72
2023/12/08 10:29:00;;;;;;;85.68;28.27;;;;;;;4.65;100.00;100648.09;5031065;28;20025;-72
2023/12/08 10:31:27;;;;;;;72.93;26.73;;;;;;;4.67;100.00;100640.31;5031950;28;20045;-73
2023/12/08 10:33:56;;;;;;;63.60;25.13;;;;;;;4.70;100.00;100643.69;5032352;28;20236;-73
2023/12/08 10:36:22;;;;;;;;;;;;;;;4.72;100.00;100631.53;5032703;28;20075;-73
2023/12/08 10:38:47;;;;;;;76.75;25.00;;;;;;;4.75;100.00;100634.09;5031830;28;19944;-73
2023/12/08 10:41:13;;;;;;;66.70;23.42;;;;;;;4.76;100.00;100634.94;5033355;28;20037;-73
2023/12/08 10:43:39;;;;;;;65.05;22.73;;;;;;;4.78;100.00;100639.22;5031717;28;20118;-73
2023/12/08 10:46:06;;;;;;;85.90;27.77;;;;;;;4.81;100.00;100641.75;5031307;28;20056;-72
2023/12/08 10:48:32;;;;;;;61.45;23.58;;;;;;;4.83;100.00;100646.06;5031958;28;20229;-72
2023/12/08 10:50:58;;;;;;;51.45;22.20;;;;;;;4.86;100.00;100652.03;5033099;28;20037;-72
2023/12/08 10:53:25;;;;;;;69.07;25.05;;;;;;;4.88;100.00;100644.22;5031362;28;20037;-72
2023/12/08 10:55:53;;;;;;;84.95;27.55;;;;;;;4.91;100.00;100646.75;5031097;28;20252;-72
2023/12/08 10:58:22;;;;;;;62.05;23.10;;;;;;;4.93;100.00;100640.66;5031963;28;20026;-72
2023/12/08 11:00:54;;;;;;;90.43;27.33;;;;;;;4.99;100.00;100642.25;5031550;28;20270;-73
2023/12/08 11:03:20;;;;;;;85.13;28.25;;;;;;;5.01;100.00;100648.28;5032059;28;20239;-73